Time;durP1;ratioP1;P1;durP2;ratioP2;P2;SDS_P1;SDS_P2;PMS_P1;PMS_P2;Temp;Humidity;BMP_temperature;BMP_pressure;BME280_temperature;BME280_humidity;BME280_pressure;Samples;Min_cycle;Max_cycle;Signal;HPM_P1;HPM_P2
2023/03/02 00:01:10;;;;;;;33.00;15.67;;;;;;;;;;5042370;28;20064;-73
2023/03/02 00:03:37;;;;;;;29.45;15.18;;;;;;;;;;5041472;28;20275;-71
2023/03/02 00:06:02;;;;;;;26.42;16.85;;;;;;;;;;5046918;28;20033;-73
2023/03/02 00:08:27;;;;;;;28.13;16.33;;;;;;;;;;5028843;28;20030;-73
2023/03/02 00:10:54;;;;;;;29.00;15.60;;;;;;;;;;5053146;28;20029;-72
2023/03/02 00:13:19;;;;;;;29.00;16.17;;;;;;;;;;5049880;28;20495;-72
2023/03/02 00:15:44;;;;;;;26.60;14.95;;;;;;;;;;5045793;28;20028;-75
2023/03/02 00:18:10;;;;;;;26.75;15.30;;;;;;;;;;5046155;28;20021;-73
2023/03/02 00:20:35;;;;;;;32.50;15.32;;;;;;;;;;5038013;28;20057;-71
2023/03/02 00:23:00;;;;;;;24.65;13.18;;;;;;;;;;5044517;28;20718;-73
2023/03/02 00:25:25;;;;;;;30.88;16.27;;;;;;;;;;5044282;28;20063;-67
2023/03/02 00:27:51;;;;;;;27.67;17.35;;;;;;;;;;5042826;28;20107;-71
2023/03/02 00:30:16;;;;;;;27.50;15.67;;;;;;;;;;5043639;28;20108;-68
2023/03/02 00:32:41;;;;;;;26.77;15.27;;;;;;;;;;5040320;28;20294;-67
2023/03/02 00:35:07;;;;;;;24.13;13.63;;;;;;;;;;5045006;28;20025;-68
2023/03/02 00:37:33;;;;;;;29.92;16.42;;;;;;;;;;5030375;28;20271;-68
2023/03/02 00:39:59;;;;;;;27.05;15.77;;;;;;;;;;5047225;28;20033;-79
2023/03/02 00:42:24;;;;;;;27.65;14.68;;;;;;;;;;5046692;28;20101;-71
2023/03/02 00:44:50;;;;;;;24.17;15.05;;;;;;;;;;5048370;28;20636;-70
2023/03/02 00:47:15;;;;;;;27.75;14.27;;;;;;;;;;5045115;28;20033;-70
2023/03/02 00:49:41;;;;;;;26.30;15.15;;;;;;;;;;5042718;28;20037;-70
2023/03/02 00:52:06;;;;;;;24.50;14.77;;;;;;;;;;5044136;28;20088;-72
2023/03/02 00:54:31;;;;;;;25.50;14.80;;;;;;;;;;5047473;28;20120;-72
2023/03/02 00:56:57;;;;;;;27.80;15.20;;;;;;;;;;5040924;28;20351;-70
2023/03/02 00:59:25;;;;;;;21.40;13.35;;;;;;;;;;5042303;28;20286;-70
2023/03/02 01:01:57;;;;;;;28.33;15.40;;;;;;;;;;5043368;28;20105;-66
2023/03/02 01:04:30;;;;;;;27.85;15.30;;;;;;;;;;5043319;28;20036;-69
2023/03/02 01:06:59;;;;;;;23.67;13.88;;;;;;;;;;5041784;28;20414;-70
2023/03/02 01:09:24;;;;;;;24.30;14.52;;;;;;;;;;5039119;28;20100;-66
2023/03/02 01:11:50;;;;;;;24.65;14.18;;;;;;;;;;5044628;28;20136;-69
2023/03/02 01:14:15;;;;;;;29.50;15.05;;;;;;;;;;5045260;28;20048;-68
2023/03/02 01:16:40;;;;;;;30.05;13.75;;;;;;;;;;5048724;28;20392;-72
2023/03/02 01:19:06;;;;;;;26.00;14.47;;;;;;;;;;5044331;28;20025;-68
2023/03/02 01:21:32;;;;;;;26.40;14.77;;;;;;;;;;5041218;28;20328;-70
2023/03/02 01:23:57;;;;;;;28.75;15.05;;;;;;;;;;5046904;28;20124;-68
2023/03/02 01:26:22;;;;;;;26.52;15.30;;;;;;;;;;5046330;28;20094;-69
2023/03/02 01:28:47;;;;;;;29.20;15.10;;;;;;;;;;5048228;28;20360;-69
2023/03/02 01:31:12;;;;;;;26.90;15.83;;;;;;;;;;5045545;28;20037;-71
2023/03/02 01:33:38;;;;;;;32.38;14.32;;;;;;;;;;5042975;28;20288;-69
2023/03/02 01:36:03;;;;;;;27.25;15.40;;;;;;;;;;5047719;28;20060;-68
2023/03/02 01:38:28;;;;;;;25.05;14.25;;;;;;;;;;5038778;28;20025;-70
2023/03/02 01:40:54;;;;;;;26.13;15.15;;;;;;;;;;5045189;28;20111;-69
2023/03/02 01:43:19;;;;;;;30.13;15.60;;;;;;;;;;5043140;28;20048;-67
2023/03/02 01:45:55;;;;;;;28.38;15.73;;;;;;;;;;5044838;28;20043;-71
2023/03/02 01:48:40;;;;;;;29.25;14.18;;;;;;;;;;5047208;28;20376;-69
2023/03/02 01:51:06;;;;;;;28.23;14.20;;;;;;;;;;5042494;28;20102;-70
2023/03/02 01:53:32;;;;;;;29.02;15.05;;;;;;;;;;5044592;28;20029;-80
2023/03/02 01:55:59;;;;;;;28.35;14.32;;;;;;;;;;5041569;28;20479;-73
2023/03/02 01:58:24;;;;;;;28.02;16.30;;;;;;;;;;5042173;28;20029;-73
2023/03/02 02:00:51;;;;;;;26.17;14.13;;;;;;;;;;5043062;28;20033;-72
2023/03/02 02:03:20;;;;;;;25.38;16.23;;;;;;;;;;5042603;28;20021;-72
2023/03/02 02:05:48;;;;;;;29.15;15.70;;;;;;;;;;5043670;28;20037;-73
2023/03/02 02:08:14;;;;;;;29.55;16.17;;;;;;;;;;5043060;28;20033;-72
2023/03/02 02:10:39;;;;;;;25.38;13.80;;;;;;;;;;5043673;28;20033;-73
2023/03/02 02:13:07;;;;;;;27.60;14.77;;;;;;;;;;5047277;28;20036;-70
2023/03/02 02:15:33;;;;;;;25.88;15.07;;;;;;;;;;5040301;28;20027;-74
2023/03/02 02:17:58;;;;;;;29.20;16.30;;;;;;;;;;5046412;28;20029;-73
2023/03/02 02:20:37;;;;;;;30.52;15.77;;;;;;;;;;5043532;28;20025;-74
2023/03/02 02:23:02;;;;;;;26.52;14.13;;;;;;;;;;5040653;28;20021;-72
2023/03/02 02:25:27;;;;;;;31.50;15.73;;;;;;;;;;5039419;28;20030;-73
2023/03/02 02:27:53;;;;;;;28.50;15.53;;;;;;;;;;5041586;28;20032;-72
2023/03/02 02:30:19;;;;;;;24.13;15.73;;;;;;;;;;5043227;28;20275;-68
2023/03/02 02:32:46;;;;;;;25.30;15.82;;;;;;;;;;5039344;28;20072;-75
2023/03/02 02:35:15;;;;;;;28.33;15.98;;;;;;;;;;5042967;28;20124;-72
2023/03/02 02:37:41;;;;;;;27.20;15.60;;;;;;;;;;5039163;28;20074;-74
2023/03/02 02:40:11;;;;;;;27.50;14.95;;;;;;;;;;5037796;28;20268;-72
2023/03/02 02:42:38;;;;;;;28.02;15.88;;;;;;;;;;5038336;28;20037;-72
2023/03/02 02:45:05;;;;;;;27.30;14.73;;;;;;;;;;5041762;28;20115;-71
2023/03/02 02:47:31;;;;;;;26.50;15.07;;;;;;;;;;5041468;28;20483;-71
2023/03/02 02:49:57;;;;;;;27.23;16.25;;;;;;;;;;5046995;28;20031;-68
2023/03/02 02:52:24;;;;;;;26.60;15.60;;;;;;;;;;5046648;28;20025;-64
2023/03/02 02:54:51;;;;;;;27.25;15.27;;;;;;;;;;5042396;28;20033;-64
2023/03/02 02:57:17;;;;;;;27.65;14.77;;;;;;;;;;5038336;28;20135;-67
2023/03/02 02:59:47;;;;;;;24.95;15.15;;;;;;;;;;5046375;28;20506;-64
2023/03/02 03:02:26;;;;;;;23.08;12.68;;;;;;;;;;5041287;28;20028;-65
2023/03/02 03:05:01;;;;;;;23.97;15.33;;;;;;;;;;5043054;28;20025;-64
2023/03/02 03:07:26;;;;;;;28.48;16.17;;;;;;;;;;5041072;28;20188;-67
2023/03/02 03:09:58;;;;;;;26.58;15.02;;;;;;;;;;5046036;28;20094;-76
2023/03/02 03:12:24;;;;;;;26.38;15.15;;;;;;;;;;5043245;28;20487;-72
2023/03/02 03:14:50;;;;;;;29.10;16.52;;;;;;;;;;5043993;28;20033;-73
2023/03/02 03:17:16;;;;;;;29.65;16.20;;;;;;;;;;5047479;28;20025;-71
2023/03/02 03:19:43;;;;;;;31.15;17.10;;;;;;;;;;5046481;28;20112;-73
2023/03/02 03:22:12;;;;;;;31.17;15.82;;;;;;;;;;5053766;28;20027;-72
2023/03/02 03:24:38;;;;;;;28.57;15.87;;;;;;;;;;5050834;28;20033;-74
2023/03/02 03:27:04;;;;;;;27.58;16.05;;;;;;;;;;5047760;28;20039;-68
2023/03/02 03:29:29;;;;;;;28.10;16.85;;;;;;;;;;5048867;28;20021;-69
2023/03/02 03:31:55;;;;;;;28.65;16.35;;;;;;;;;;5049723;28;20028;-68
2023/03/02 03:34:21;;;;;;;29.00;16.00;;;;;;;;;;5046794;28;20029;-68
2023/03/02 03:36:46;;;;;;;28.90;16.40;;;;;;;;;;5048118;28;20032;-68
2023/03/02 03:39:12;;;;;;;28.45;15.85;;;;;;;;;;5050321;28;20017;-71
2023/03/02 03:41:37;;;;;;;28.15;16.02;;;;;;;;;;5048048;28;20044;-69
2023/03/02 03:44:03;;;;;;;28.10;15.38;;;;;;;;;;5043668;28;20439;-69
2023/03/02 03:46:28;;;;;;;29.58;16.35;;;;;;;;;;5045669;28;20036;-68
2023/03/02 03:48:54;;;;;;;33.33;16.60;;;;;;;;;;5047642;28;20124;-68
2023/03/02 03:51:19;;;;;;;27.05;16.05;;;;;;;;;;5044418;28;20094;-67
2023/03/02 03:53:44;;;;;;;28.47;16.17;;;;;;;;;;5049523;28;20043;-66
2023/03/02 03:56:10;;;;;;;31.48;16.98;;;;;;;;;;5049727;28;20285;-68
2023/03/02 03:58:35;;;;;;;28.02;16.13;;;;;;;;;;5045925;28;20501;-68
2023/03/02 04:01:00;;;;;;;27.23;16.23;;;;;;;;;;5046413;28;20078;-68
2023/03/02 04:03:26;;;;;;;36.30;17.77;;;;;;;;;;5042902;28;20522;-68
2023/03/02 04:05:51;;;;;;;28.27;16.55;;;;;;;;;;5047927;28;20029;-68
2023/03/02 04:08:16;;;;;;;34.23;18.07;;;;;;;;;;5041799;28;20048;-68
2023/03/02 04:10:42;;;;;;;27.63;16.73;;;;;;;;;;5048360;28;20349;-68
2023/03/02 04:13:07;;;;;;;26.98;16.40;;;;;;;;;;5039124;28;20043;-68
2023/03/02 04:15:32;;;;;;;29.27;16.05;;;;;;;;;;5044046;28;20036;-67
2023/03/02 04:17:58;;;;;;;26.87;15.80;;;;;;;;;;5047599;28;20484;-68
2023/03/02 04:20:24;;;;;;;28.80;16.63;;;;;;;;;;5044072;28;20699;-68
2023/03/02 04:22:53;;;;;;;30.42;16.40;;;;;;;;;;5040739;28;20025;-68
2023/03/02 04:25:20;;;;;;;29.15;15.30;;;;;;;;;;5045712;28;20017;-69
2023/03/02 04:27:47;;;;;;;28.80;15.75;;;;;;;;;;5049497;28;20029;-67
2023/03/02 04:30:12;;;;;;;30.48;16.48;;;;;;;;;;5045612;28;20040;-69
2023/03/02 04:32:38;;;;;;;28.70;15.55;;;;;;;;;;5028041;28;20037;-69
2023/03/02 04:35:03;;;;;;;31.50;17.13;;;;;;;;;;5042008;28;20029;-69
2023/03/02 04:37:29;;;;;;;27.70;16.45;;;;;;;;;;5042932;28;20287;-69
2023/03/02 04:39:54;;;;;;;32.70;17.20;;;;;;;;;;5044686;28;20024;-69
2023/03/02 04:42:19;;;;;;;32.65;18.13;;;;;;;;;;5045439;28;20035;-67
2023/03/02 04:44:45;;;;;;;31.35;15.43;;;;;;;;;;5046234;28;20067;-67
2023/03/02 04:47:10;;;;;;;27.77;15.38;;;;;;;;;;5047324;28;20043;-68
2023/03/02 04:49:35;;;;;;;35.42;17.88;;;;;;;;;;5044751;28;20439;-68
2023/03/02 04:52:01;;;;;;;32.28;17.27;;;;;;;;;;5047336;28;20029;-67
2023/03/02 04:54:28;;;;;;;30.50;16.73;;;;;;;;;;5045850;28;20077;-68
2023/03/02 04:56:53;;;;;;;29.50;16.25;;;;;;;;;;5045812;28;20477;-72
2023/03/02 04:59:21;;;;;;;29.60;17.67;;;;;;;;;;5050616;28;20094;-67
2023/03/02 05:01:46;;;;;;;31.23;17.65;;;;;;;;;;5026769;28;20084;-67
2023/03/02 05:04:11;;;;;;;28.80;16.23;;;;;;;;;;5043446;28;20020;-67
2023/03/02 05:06:37;;;;;;;29.67;17.00;;;;;;;;;;5039963;28;20034;-67
2023/03/02 05:09:03;;;;;;;30.10;16.98;;;;;;;;;;5041732;28;20438;-68
2023/03/02 05:11:28;;;;;;;30.92;17.17;;;;;;;;;;5029003;28;20047;-67
2023/03/02 05:13:55;;;;;;;33.70;17.83;;;;;;;;;;5045362;28;20527;-68
2023/03/02 05:16:21;;;;;;;27.85;15.10;;;;;;;;;;5044268;28;20459;-69
2023/03/02 05:18:46;;;;;;;32.20;17.80;;;;;;;;;;5042005;28;20097;-70
2023/03/02 05:21:13;;;;;;;30.60;16.75;;;;;;;;;;5039286;28;20029;-70
2023/03/02 05:23:38;;;;;;;31.05;17.00;;;;;;;;;;5043607;28;20104;-68
2023/03/02 05:26:03;;;;;;;30.40;16.02;;;;;;;;;;5036022;28;20115;-71
2023/03/02 05:28:29;;;;;;;28.77;18.27;;;;;;;;;;5027785;28;20024;-69
2023/03/02 05:30:54;;;;;;;29.75;16.58;;;;;;;;;;5051843;28;20500;-69
2023/03/02 05:33:19;;;;;;;29.73;16.63;;;;;;;;;;5041479;28;20021;-71
2023/03/02 05:35:45;;;;;;;35.58;15.60;;;;;;;;;;5023456;28;20048;-68
2023/03/02 05:38:11;;;;;;;28.95;16.00;;;;;;;;;;5041416;28;20048;-72
2023/03/02 05:40:37;;;;;;;29.58;17.15;;;;;;;;;;5037007;28;20460;-70
2023/03/02 05:43:02;;;;;;;30.98;16.58;;;;;;;;;;5043799;28;20158;-72
2023/03/02 05:45:29;;;;;;;32.30;16.80;;;;;;;;;;5024713;28;20025;-72
2023/03/02 05:47:55;;;;;;;27.05;15.95;;;;;;;;;;5041169;28;20031;-74
2023/03/02 05:50:20;;;;;;;30.53;17.10;;;;;;;;;;5040645;28;20034;-72
2023/03/02 05:52:45;;;;;;;33.63;17.98;;;;;;;;;;5038623;28;20283;-66
2023/03/02 05:55:12;;;;;;;28.75;17.50;;;;;;;;;;5044601;28;20032;-65
2023/03/02 05:57:37;;;;;;;29.17;16.75;;;;;;;;;;5034610;28;20266;-65
2023/03/02 06:00:04;;;;;;;29.88;16.65;;;;;;;;;;5041055;28;20028;-68
2023/03/02 06:02:29;;;;;;;30.70;16.73;;;;;;;;;;5051580;28;20033;-68
2023/03/02 06:04:55;;;;;;;32.50;17.30;;;;;;;;;;5047995;28;20029;-66
2023/03/02 06:07:20;;;;;;;34.05;18.00;;;;;;;;;;5040656;28;20299;-65
2023/03/02 06:09:46;;;;;;;27.93;15.83;;;;;;;;;;5043254;28;20806;-65
2023/03/02 06:12:11;;;;;;;28.80;17.35;;;;;;;;;;5043827;28;20815;-68
2023/03/02 06:14:36;;;;;;;35.67;17.03;;;;;;;;;;5026762;28;20381;-69
2023/03/02 06:17:01;;;;;;;32.30;19.50;;;;;;;;;;5035318;28;20901;-71
2023/03/02 06:19:26;;;;;;;37.85;18.88;;;;;;;;;;5044039;28;20279;-67
2023/03/02 06:21:52;;;;;;;35.88;19.48;;;;;;;;;;5047493;28;20464;-68
2023/03/02 06:24:17;;;;;;;33.67;18.60;;;;;;;;;;5047557;28;20084;-69
2023/03/02 06:26:43;;;;;;;33.77;18.57;;;;;;;;;;5041667;28;20036;-70
2023/03/02 06:29:08;;;;;;;33.85;17.58;;;;;;;;;;5042935;28;20283;-69
2023/03/02 06:31:33;;;;;;;31.93;18.73;;;;;;;;;;5043431;28;20035;-73
2023/03/02 06:33:59;;;;;;;37.15;20.10;;;;;;;;;;5041808;28;20323;-69
2023/03/02 06:36:24;;;;;;;35.72;19.60;;;;;;;;;;5044783;28;20119;-70
2023/03/02 06:38:49;;;;;;;33.92;18.88;;;;;;;;;;5041272;28;20025;-70
2023/03/02 06:41:15;;;;;;;38.37;19.20;;;;;;;;;;5044296;28;20321;-68
2023/03/02 06:43:40;;;;;;;38.33;20.17;;;;;;;;;;5040912;28;20318;-68
2023/03/02 06:46:05;;;;;;;32.35;17.85;;;;;;;;;;5046415;28;20299;-71
2023/03/02 06:48:31;;;;;;;34.08;18.90;;;;;;;;;;5049867;28;20056;-69
2023/03/02 06:50:56;;;;;;;36.97;19.10;;;;;;;;;;5044234;28;20021;-83
2023/03/02 06:53:22;;;;;;;33.03;19.13;;;;;;;;;;5052806;28;20045;-84
2023/03/02 06:55:47;;;;;;;36.78;19.75;;;;;;;;;;5047552;28;20337;-82
2023/03/02 06:58:12;;;;;;;36.88;19.80;;;;;;;;;;5056190;28;20060;-88
2023/03/02 07:00:38;;;;;;;33.65;18.33;;;;;;;;;;5045949;28;20500;-89
2023/03/02 07:03:03;;;;;;;33.50;19.35;;;;;;;;;;5051333;28;20024;-85
2023/03/02 07:05:31;;;;;;;36.55;19.20;;;;;;;;;;5047821;28;20316;-77
2023/03/02 07:07:56;;;;;;;32.38;17.75;;;;;;;;;;5055419;28;20033;-84
2023/03/02 07:10:21;;;;;;;34.10;17.05;;;;;;;;;;5048731;28;20021;-69
2023/03/02 07:12:46;;;;;;;31.63;17.70;;;;;;;;;;5047221;28;20128;-68
2023/03/02 07:15:13;;;;;;;32.37;19.00;;;;;;;;;;5045556;28;20029;-72
2023/03/02 07:17:38;;;;;;;36.40;20.33;;;;;;;;;;5041469;28;20341;-63
2023/03/02 07:20:05;;;;;;;31.35;18.83;;;;;;;;;;5044093;28;20037;-65
2023/03/02 07:22:30;;;;;;;35.38;18.95;;;;;;;;;;5041069;28;20059;-69
2023/03/02 07:24:55;;;;;;;34.67;18.85;;;;;;;;;;5042478;28;20666;-79
2023/03/02 07:27:20;;;;;;;33.15;18.00;;;;;;;;;;5045814;28;20017;-71
2023/03/02 07:29:46;;;;;;;33.00;19.13;;;;;;;;;;5042147;28;20053;-76
2023/03/02 07:32:11;;;;;;;35.38;18.27;;;;;;;;;;5044413;28;20319;-77
2023/03/02 07:34:36;;;;;;;35.67;19.98;;;;;;;;;;5047376;28;20091;-72
2023/03/02 07:37:02;;;;;;;32.95;20.10;;;;;;;;;;5028143;28;20033;-75
2023/03/02 07:39:27;;;;;;;32.10;19.05;;;;;;;;;;5055150;28;20032;-76
2023/03/02 07:41:56;;;;;;;31.63;17.65;;;;;;;;;;5044818;28;22161;-74
2023/03/02 07:44:21;;;;;;;34.38;19.73;;;;;;;;;;5047684;28;20115;-72
2023/03/02 07:46:46;;;;;;;36.57;18.80;;;;;;;;;;5043619;28;20539;-79
2023/03/02 07:49:11;;;;;;;33.33;17.77;;;;;;;;;;5047205;28;20809;-79
2023/03/02 07:51:37;;;;;;;31.43;18.80;;;;;;;;;;5045478;28;20388;-77
2023/03/02 07:54:03;;;;;;;32.25;18.10;;;;;;;;;;5044760;28;20650;-76
2023/03/02 07:56:29;;;;;;;31.48;18.13;;;;;;;;;;5027683;28;20033;-77
2023/03/02 07:58:54;;;;;;;30.35;17.17;;;;;;;;;;5045895;28;20044;-80
2023/03/02 08:01:19;;;;;;;30.00;17.77;;;;;;;;;;5029285;28;20372;-78
2023/03/02 08:03:44;;;;;;;32.45;18.00;;;;;;;;;;5028935;28;20819;-75
2023/03/02 08:06:10;;;;;;;35.20;18.67;;;;;;;;;;5045171;28;20025;-78
2023/03/02 08:08:36;;;;;;;32.10;18.10;;;;;;;;;;5044483;28;20371;-80
2023/03/02 08:11:05;;;;;;;32.08;18.00;;;;;;;;;;5037890;28;20013;-80
2023/03/02 08:13:30;;;;;;;31.48;18.52;;;;;;;;;;5029369;28;20159;-85
2023/03/02 08:15:59;;;;;;;31.20;17.60;;;;;;;;;;5053836;28;20120;-79
2023/03/02 08:18:25;;;;;;;30.50;16.60;;;;;;;;;;5050304;28;20283;-76
2023/03/02 08:20:50;;;;;;;28.75;16.70;;;;;;;;;;5045639;28;20029;-68
2023/03/02 08:23:15;;;;;;;34.03;17.80;;;;;;;;;;5043336;28;20543;-70
2023/03/02 08:25:41;;;;;;;40.17;18.60;;;;;;;;;;5044382;28;20842;-69
2023/03/02 08:28:06;;;;;;;32.78;18.38;;;;;;;;;;5048644;28;20043;-68
2023/03/02 08:30:31;;;;;;;30.83;19.02;;;;;;;;;;5043285;28;20032;-69
2023/03/02 08:32:57;;;;;;;32.60;17.92;;;;;;;;;;5049639;28;20041;-68
2023/03/02 08:35:22;;;;;;;29.63;17.27;;;;;;;;;;5047744;28;20028;-68
2023/03/02 08:37:47;;;;;;;33.43;17.10;;;;;;;;;;5047848;28;20389;-74
2023/03/02 08:40:12;;;;;;;34.78;17.58;;;;;;;;;;5044223;28;20768;-72
2023/03/02 08:42:37;;;;;;;33.10;17.60;;;;;;;;;;5056779;28;20013;-70
2023/03/02 08:45:03;;;;;;;31.57;17.63;;;;;;;;;;5046267;28;20031;-69
2023/03/02 08:47:28;;;;;;;33.03;17.35;;;;;;;;;;5045293;28;20271;-69
2023/03/02 08:49:53;;;;;;;33.30;16.77;;;;;;;;;;5048430;28;20025;-69
2023/03/02 08:52:19;;;;;;;36.30;19.77;;;;;;;;;;5045019;28;20322;-68
2023/03/02 08:54:44;;;;;;;30.00;16.98;;;;;;;;;;5049588;28;20304;-69
2023/03/02 08:57:10;;;;;;;28.90;18.87;;;;;;;;;;5047939;28;20042;-68
2023/03/02 08:59:35;;;;;;;32.28;18.65;;;;;;;;;;5047812;28;20276;-69
2023/03/02 09:02:01;;;;;;;30.67;17.95;;;;;;;;;;5043758;28;20021;-69
2023/03/02 09:04:26;;;;;;;30.75;16.10;;;;;;;;;;5043113;28;20020;-69
2023/03/02 09:06:51;;;;;;;28.47;16.73;;;;;;;;;;5043392;28;20423;-69
2023/03/02 09:09:16;;;;;;;42.17;18.03;;;;;;;;;;5045874;28;20618;-68
2023/03/02 09:11:43;;;;;;;30.63;18.45;;;;;;;;;;5049042;28;20677;-69
2023/03/02 09:14:08;;;;;;;29.17;15.93;;;;;;;;;;5052401;28;20089;-68
2023/03/02 09:16:34;;;;;;;27.23;15.13;;;;;;;;;;5050430;28;20491;-75
2023/03/02 09:18:59;;;;;;;32.03;17.33;;;;;;;;;;5046339;28;20384;-68
2023/03/02 09:21:24;;;;;;;29.47;16.63;;;;;;;;;;5044307;28;20025;-69
2023/03/02 09:23:54;;;;;;;32.00;18.00;;;;;;;;;;5042255;28;20275;-70
2023/03/02 09:26:19;;;;;;;27.35;15.77;;;;;;;;;;5041151;28;20032;-68
2023/03/02 09:28:45;;;;;;;28.48;15.73;;;;;;;;;;5044207;28;20044;-69
2023/03/02 09:31:10;;;;;;;26.55;17.02;;;;;;;;;;5046604;28;20029;-67
2023/03/02 09:33:36;;;;;;;29.90;17.55;;;;;;;;;;5046367;28;20021;-71
2023/03/02 09:36:08;;;;;;;28.00;15.98;;;;;;;;;;5040351;28;20583;-75
2023/03/02 09:38:33;;;;;;;27.23;16.05;;;;;;;;;;5047845;28;20104;-77
2023/03/02 09:41:17;;;;;;;28.40;16.17;;;;;;;;;;5030930;28;20761;-72
2023/03/02 09:44:00;;;;;;;27.80;16.00;;;;;;;;;;5046287;28;20029;-73
2023/03/02 09:46:33;;;;;;;28.00;15.52;;;;;;;;;;5051918;28;20074;-71
2023/03/02 09:48:58;;;;;;;26.08;15.32;;;;;;;;;;5044285;28;20098;-71
2023/03/02 09:51:42;;;;;;;26.93;15.23;;;;;;;;;;5044702;28;20163;-70
2023/03/02 09:54:08;;;;;;;25.45;16.08;;;;;;;;;;5045991;28;20044;-74
2023/03/02 09:56:51;;;;;;;25.73;14.38;;;;;;;;;;5045816;28;20043;-77
2023/03/02 09:59:16;;;;;;;25.95;15.30;;;;;;;;;;5047348;28;20025;-76
2023/03/02 10:01:46;;;;;;;21.30;14.10;;;;;;;;;;5043939;28;20087;-76
2023/03/02 10:04:22;;;;;;;30.38;15.77;;;;;;;;;;5047803;28;20051;-73
2023/03/02 10:06:50;;;;;;;30.30;15.88;;;;;;;;;;5043736;28;20033;-73
2023/03/02 10:09:16;;;;;;;23.75;14.20;;;;;;;;;;5042696;28;20033;-71
2023/03/02 10:11:41;;;;;;;29.85;16.30;;;;;;;;;;5046602;28;20040;-68
2023/03/02 10:14:11;;;;;;;26.40;15.73;;;;;;;;;;5042651;28;20025;-69
2023/03/02 10:16:45;;;;;;;29.27;15.50;;;;;;;;;;5043239;28;20275;-68
2023/03/02 10:19:16;;;;;;;26.67;15.93;;;;;;;;;;5052588;28;20036;-72
2023/03/02 10:21:44;;;;;;;27.75;15.20;;;;;;;;;;5040027;28;20037;-70
2023/03/02 10:24:28;;;;;;;27.85;15.57;;;;;;;;;;5041768;28;20123;-70
2023/03/02 10:26:56;;;;;;;26.10;15.23;;;;;;;;;;5047568;28;20061;-72
2023/03/02 10:29:34;;;;;;;24.35;14.57;;;;;;;;;;5047910;28;20023;-74
2023/03/02 10:32:19;;;;;;;25.38;14.98;;;;;;;;;;5039553;28;20040;-68
2023/03/02 10:34:45;;;;;;;29.52;15.10;;;;;;;;;;5042372;28;20080;-68
2023/03/02 10:37:12;;;;;;;27.13;15.38;;;;;;;;;;5044429;28;20052;-68
2023/03/02 10:39:37;;;;;;;26.77;15.38;;;;;;;;;;5044392;28;20025;-67
2023/03/02 10:42:03;;;;;;;22.13;13.20;;;;;;;;;;5046716;28;20044;-66
2023/03/02 10:44:30;;;;;;;26.30;15.48;;;;;;;;;;5044003;28;20313;-70
2023/03/02 10:46:56;;;;;;;30.23;15.13;;;;;;;;;;5042707;28;20075;-71
2023/03/02 10:49:31;;;;;;;24.17;13.63;;;;;;;;;;5044764;28;20319;-70
2023/03/02 10:51:59;;;;;;;27.40;15.75;;;;;;;;;;5033178;28;20055;-70
2023/03/02 10:54:25;;;;;;;24.35;15.40;;;;;;;;;;5039641;28;20033;-69
2023/03/02 10:56:51;;;;;;;24.55;14.40;;;;;;;;;;5043747;28;20486;-70
2023/03/02 10:59:52;;;;;;;24.33;15.65;;;;;;;;;;5044633;28;20025;-70
2023/03/02 11:02:22;;;;;;;24.23;15.60;;;;;;;;;;4966044;28;20084;-67
2023/03/02 11:04:48;;;;;;;30.45;16.15;;;;;;;;;;5030718;28;20522;-67
2023/03/02 11:07:16;;;;;;;26.35;16.30;;;;;;;;;;5045955;28;20072;-73
2023/03/02 11:09:42;;;;;;;28.90;15.68;;;;;;;;;;5041119;28;20064;-70
2023/03/02 11:12:13;;;;;;;26.73;16.08;;;;;;;;;;5042171;28;20495;-73
2023/03/02 11:14:38;;;;;;;26.02;15.50;;;;;;;;;;5047189;28;20025;-70
2023/03/02 11:17:19;;;;;;;26.57;16.27;;;;;;;;;;5047050;28;20048;-71
2023/03/02 11:19:44;;;;;;;24.50;14.95;;;;;;;;;;5045216;28;20275;-68
2023/03/02 11:22:19;;;;;;;23.63;15.98;;;;;;;;;;5050342;28;20017;-68
2023/03/02 11:24:47;;;;;;;25.50;15.85;;;;;;;;;;5044898;28;20037;-66
2023/03/02 11:27:13;;;;;;;28.48;15.52;;;;;;;;;;5044323;28;20047;-69
2023/03/02 11:29:46;;;;;;;25.47;14.70;;;;;;;;;;5044231;28;20037;-68
2023/03/02 11:32:14;;;;;;;26.70;15.40;;;;;;;;;;5044892;28;20666;-71
2023/03/02 11:34:46;;;;;;;24.88;15.07;;;;;;;;;;5029042;28;20053;-70
2023/03/02 11:37:20;;;;;;;23.90;15.20;;;;;;;;;;5048471;28;20032;-68
2023/03/02 11:39:48;;;;;;;22.90;13.68;;;;;;;;;;5048517;28;20040;-70
2023/03/02 11:42:22;;;;;;;25.88;16.38;;;;;;;;;;5048828;28;20029;-66
2023/03/02 11:44:48;;;;;;;22.88;15.63;;;;;;;;;;5047163;28;20021;-65
2023/03/02 11:47:13;;;;;;;24.65;13.13;;;;;;;;;;5048659;28;20384;-65
2023/03/02 11:49:42;;;;;;;21.63;14.10;;;;;;;;;;5042617;28;20029;-66
2023/03/02 11:52:15;;;;;;;24.85;14.70;;;;;;;;;;5048097;28;20032;-64
2023/03/02 11:54:43;;;;;;;19.33;13.23;;;;;;;;;;5054646;28;20138;-63
2023/03/02 11:57:16;;;;;;;21.60;14.05;;;;;;;;;;5046372;28;20521;-67
2023/03/02 11:59:42;;;;;;;23.75;14.38;;;;;;;;;;5047095;28;20025;-75
2023/03/02 12:02:10;;;;;;;26.92;15.15;;;;;;;;;;5046822;28;20503;-71
2023/03/02 12:04:36;;;;;;;23.85;14.43;;;;;;;;;;5049808;28;20031;-69
2023/03/02 12:07:21;;;;;;;28.35;15.98;;;;;;;;;;5049510;28;20032;-71
2023/03/02 12:09:56;;;;;;;21.05;14.70;;;;;;;;;;5047017;28;20047;-68
2023/03/02 12:12:24;;;;;;;21.25;14.35;;;;;;;;;;5048023;28;20032;-69
2023/03/02 12:14:51;;;;;;;20.75;14.30;;;;;;;;;;5047756;28;20029;-68
2023/03/02 12:17:16;;;;;;;24.75;14.85;;;;;;;;;;5046906;28;20037;-68
2023/03/02 12:19:43;;;;;;;20.40;14.10;;;;;;;;;;5042564;28;20094;-67
2023/03/02 12:22:11;;;;;;;21.08;14.32;;;;;;;;;;5045588;28;20488;-72
2023/03/02 12:24:37;;;;;;;22.38;14.05;;;;;;;;;;5048341;28;20112;-73
2023/03/02 12:27:09;;;;;;;22.38;13.93;;;;;;;;;;5055149;28;20036;-73
2023/03/02 12:29:41;;;;;;;21.50;13.52;;;;;;;;;;5039247;28;20013;-76
2023/03/02 12:32:11;;;;;;;24.02;14.70;;;;;;;;;;5043446;28;20115;-72
2023/03/02 12:34:37;;;;;;;23.40;13.55;;;;;;;;;;5045271;28;20467;-74
2023/03/02 12:37:05;;;;;;;23.63;14.63;;;;;;;;;;5046637;28;20040;-76
2023/03/02 12:39:49;;;;;;;23.50;14.85;;;;;;;;;;5046790;28;20067;-70
2023/03/02 12:42:33;;;;;;;22.02;14.90;;;;;;;;;;5028547;28;20564;-74
2023/03/02 12:45:17;;;;;;;23.27;14.57;;;;;;;;;;5047255;28;20476;-74
2023/03/02 12:47:45;;;;;;;21.55;14.52;;;;;;;;;;5026650;28;20039;-78
2023/03/02 12:50:22;;;;;;;25.10;15.10;;;;;;;;;;5048514;28;20021;-76
2023/03/02 12:53:04;;;;;;;22.30;14.80;;;;;;;;;;5046961;28;20048;-74
2023/03/02 12:55:30;;;;;;;25.08;15.13;;;;;;;;;;5046544;28;20021;-72
2023/03/02 12:58:03;;;;;;;22.27;15.00;;;;;;;;;;5053052;28;20087;-68
2023/03/02 13:00:29;;;;;;;23.27;13.35;;;;;;;;;;5045599;28;20040;-68
2023/03/02 13:02:55;;;;;;;20.98;13.75;;;;;;;;;;5043008;28;20036;-68
2023/03/02 13:05:22;;;;;;;23.35;15.65;;;;;;;;;;5042533;28;20098;-67
2023/03/02 13:07:55;;;;;;;21.48;12.98;;;;;;;;;;5044245;28;20047;-67
2023/03/02 13:10:23;;;;;;;20.35;13.00;;;;;;;;;;5047565;28;20468;-67
2023/03/02 13:12:48;;;;;;;23.33;14.13;;;;;;;;;;5042561;28;20044;-68
2023/03/02 13:15:14;;;;;;;21.20;13.88;;;;;;;;;;5044719;28;20075;-68
2023/03/02 13:17:40;;;;;;;22.65;14.23;;;;;;;;;;5046113;28;20031;-70
2023/03/02 13:20:05;;;;;;;21.50;13.37;;;;;;;;;;5040711;28;20056;-69
2023/03/02 13:22:31;;;;;;;21.25;13.50;;;;;;;;;;5046927;28;20276;-69
2023/03/02 13:25:02;;;;;;;27.15;14.85;;;;;;;;;;5046280;28;20116;-70
2023/03/02 13:27:28;;;;;;;23.63;13.57;;;;;;;;;;5044603;28;20028;-69
2023/03/02 13:29:54;;;;;;;23.38;14.27;;;;;;;;;;5034027;28;21388;-68
2023/03/02 13:32:37;;;;;;;22.10;14.13;;;;;;;;;;5045170;28;20056;-75
2023/03/02 13:35:14;;;;;;;25.80;14.95;;;;;;;;;;5045908;28;20024;-75
2023/03/02 13:37:42;;;;;;;23.90;13.40;;;;;;;;;;5045401;28;20021;-74
2023/03/02 13:40:25;;;;;;;21.13;13.65;;;;;;;;;;5045271;28;20060;-73
2023/03/02 13:42:51;;;;;;;22.67;13.15;;;;;;;;;;5044369;28;20064;-75
2023/03/02 13:45:21;;;;;;;22.48;13.27;;;;;;;;;;5047171;28;20490;-73
2023/03/02 13:47:46;;;;;;;18.75;13.23;;;;;;;;;;5044774;28;20029;-73
2023/03/02 13:50:16;;;;;;;21.80;13.57;;;;;;;;;;5046987;28;20033;-74
2023/03/02 13:52:41;;;;;;;22.55;14.98;;;;;;;;;;5045067;28;20136;-72
2023/03/02 13:55:11;;;;;;;19.67;12.77;;;;;;;;;;5042468;28;20124;-68
2023/03/02 13:57:36;;;;;;;22.10;13.80;;;;;;;;;;5039516;28;20358;-69
2023/03/02 14:00:03;;;;;;;24.17;14.82;;;;;;;;;;5042580;28;20116;-68
2023/03/02 14:02:29;;;;;;;25.98;14.68;;;;;;;;;;5054342;28;20066;-66
2023/03/02 14:04:55;;;;;;;28.67;14.38;;;;;;;;;;5043865;28;20033;-68
2023/03/02 14:07:20;;;;;;;23.98;13.57;;;;;;;;;;5046141;28;20083;-69
2023/03/02 14:09:46;;;;;;;26.35;14.02;;;;;;;;;;5042435;28;20036;-78
2023/03/02 14:12:30;;;;;;;25.27;15.25;;;;;;;;;;5044677;28;20033;-68
2023/03/02 14:14:56;;;;;;;22.70;14.10;;;;;;;;;;5028150;28;20112;-67
2023/03/02 14:17:23;;;;;;;21.92;14.32;;;;;;;;;;5046032;28;20040;-69